This is the latest recevied weather packets stored in our database for station/object W7TTE. If no packets are shown the sender has not sent any weather packets the latest 10 day(s).
| Time | Temp. | Humidity | Pressure | Rain* | Wind** | Luminosity | Snow |
|---|---|---|---|---|---|---|---|
| 1777601458 | 30° C | 15% | 1006.5 hPa | 0 mm | - | 4 W/m² | - |
| 1777601154 | 30° C | 15% | 1006.6 hPa | 0 mm | - | 7 W/m² | - |
| 1777600547 | 30° C | 16% | 1006.5 hPa | 0 mm | - | 15 W/m² | - |
| 1777583851 | 33.33° C | 13% | 1008.4 hPa | 0 mm | - | 583 W/m² | - |
| 1777580821 | 33.89° C | 14% | 1009.1 hPa | 0 mm | - | 622 W/m² | - |
| 1777580212 | 32.78° C | 14% | 1009.4 hPa | 0 mm | - | 806 W/m² | - |
| 1777579909 | 32.78° C | 14% | 1009.5 hPa | 0 mm | - | 874 W/m² | - |
| 1777577786 | 32.78° C | 15% | 1009.8 hPa | 0 mm | - | 789 W/m² | - |
| 1777577173 | 31.67° C | 16% | 1010.1 hPa | 0 mm | - | 790 W/m² | - |
| 1777576870 | 31.67° C | 17% | 1010.2 hPa | 0 mm | - | 789 W/m² | - |
| 1777576568 | 31.11° C | 17% | 1010.3 hPa | 0 mm | - | 790 W/m² | - |
| 1777575962 | 32.22° C | 17% | 1010.4 hPa | 0 mm | - | 785 W/m² | - |
| 1777574746 | 31.11° C | 17% | 1010.8 hPa | 0 mm | - | 779 W/m² | - |
| 1777574444 | 30.56° C | 17% | 1010.9 hPa | 0 mm | - | 776 W/m² | - |
| 1777574139 | 31.11° C | 17% | 1011.1 hPa | 0 mm | - | 771 W/m² | - |
| 1777573835 | 30.56° C | 18% | 1011.1 hPa | 0 mm | - | 766 W/m² | - |
| 1777572623 | 30° C | 18% | 1011.5 hPa | 0 mm | - | 741 W/m² | - |
| 1777572318 | 29.44° C | 18% | 1011.4 hPa | 0 mm | - | 736 W/m² | - |
| 1777571709 | 30° C | 19% | 1011.5 hPa | 0 mm | - | 721 W/m² | - |
| 1777570495 | 28.33° C | 20% | 1011.8 hPa | 0 mm | - | 688 W/m² | - |
| 1777569280 | 28.33° C | 21% | 1012.3 hPa | 0 mm | - | 647 W/m² | - |
| 1777568976 | 28.33° C | 21% | 1012.1 hPa | 0 mm | - | 635 W/m² | - |
| 1777566856 | 27.22° C | 23% | 1012.2 hPa | 0 mm | - | 550 W/m² | - |
| 1777566251 | 26.67° C | 25% | 1012.2 hPa | 0 mm | - | 522 W/m² | - |
| 1777565948 | 26.11° C | 24% | 1012.2 hPa | 0 mm | - | 509 W/m² | - |
* Rain latest hour (hover to see other rain measurements)
** Current wind speed in m/s (hover to see current wind gust speed)